sensor_id;sensor_type;location;lat;lon;timestamp;P1;durP1;ratioP1;P2;durP2;ratioP2
74293;SDS011;64044;59.904;10.738;2024-01-15T00:02:04;0.32;;;0.10;;
74293;SDS011;64044;59.904;10.738;2024-01-15T00:04:31;0.20;;;0.10;;
74293;SDS011;64044;59.904;10.738;2024-01-15T00:07:02;2.80;;;0.30;;
74293;SDS011;64044;59.904;10.738;2024-01-15T00:09:28;0.45;;;0.28;;
74293;SDS011;64044;59.904;10.738;2024-01-15T00:11:53;0.30;;;0.30;;
74293;SDS011;64044;59.904;10.738;2024-01-15T00:14:19;0.30;;;0.10;;
74293;SDS011;64044;59.904;10.738;2024-01-15T00:16:45;1.00;;;0.30;;
74293;SDS011;64044;59.904;10.738;2024-01-15T00:19:12;0.03;;;0.03;;
74293;SDS011;64044;59.904;10.738;2024-01-15T00:21:38;1.52;;;0.30;;
74293;SDS011;64044;59.904;10.738;2024-01-15T00:24:03;0.10;;;0.10;;
74293;SDS011;64044;59.904;10.738;2024-01-15T00:26:29;0.25;;;0.10;;
74293;SDS011;64044;59.904;10.738;2024-01-15T00:28:55;0.10;;;0.10;;
74293;SDS011;64044;59.904;10.738;2024-01-15T00:31:21;0.10;;;0.10;;
74293;SDS011;64044;59.904;10.738;2024-01-15T00:33:46;0.10;;;0.10;;
74293;SDS011;64044;59.904;10.738;2024-01-15T00:36:12;0.20;;;0.10;;
74293;SDS011;64044;59.904;10.738;2024-01-15T00:38:39;0.20;;;0.20;;
74293;SDS011;64044;59.904;10.738;2024-01-15T00:41:05;0.20;;;0.20;;
74293;SDS011;64044;59.904;10.738;2024-01-15T00:43:30;0.32;;;0.13;;
74293;SDS011;64044;59.904;10.738;2024-01-15T00:45:56;0.60;;;0.10;;
74293;SDS011;64044;59.904;10.738;2024-01-15T00:48:22;0.95;;;0.30;;
74293;SDS011;64044;59.904;10.738;2024-01-15T00:50:48;0.43;;;0.17;;
74293;SDS011;64044;59.904;10.738;2024-01-15T00:53:13;0.38;;;0.30;;
74293;SDS011;64044;59.904;10.738;2024-01-15T00:55:39;0.57;;;0.13;;
74293;SDS011;64044;59.904;10.738;2024-01-15T00:58:05;0.43;;;0.30;;
74293;SDS011;64044;59.904;10.738;2024-01-15T01:00:31;0.43;;;0.30;;
74293;SDS011;64044;59.904;10.738;2024-01-15T01:02:56;0.17;;;0.03;;
74293;SDS011;64044;59.904;10.738;2024-01-15T01:05:22;0.65;;;0.40;;
74293;SDS011;64044;59.904;10.738;2024-01-15T01:07:48;0.30;;;0.30;;
74293;SDS011;64044;59.904;10.738;2024-01-15T01:10:13;0.45;;;0.10;;
74293;SDS011;64044;59.904;10.738;2024-01-15T01:12:39;0.10;;;0.10;;
74293;SDS011;64044;59.904;10.738;2024-01-15T01:15:05;0.10;;;0.10;;
74293;SDS011;64044;59.904;10.738;2024-01-15T01:17:31;0.88;;;0.35;;
74293;SDS011;64044;59.904;10.738;2024-01-15T01:19:56;0.03;;;0.00;;
74293;SDS011;64044;59.904;10.738;2024-01-15T01:22:22;0.10;;;0.10;;
74293;SDS011;64044;59.904;10.738;2024-01-15T01:24:48;0.00;;;0.00;;
74293;SDS011;64044;59.904;10.738;2024-01-15T01:27:14;0.10;;;0.10;;
74293;SDS011;64044;59.904;10.738;2024-01-15T01:29:39;0.03;;;0.03;;
74293;SDS011;64044;59.904;10.738;2024-01-15T01:32:05;0.00;;;0.00;;
74293;SDS011;64044;59.904;10.738;2024-01-15T01:34:32;0.10;;;0.10;;
74293;SDS011;64044;59.904;10.738;2024-01-15T01:37:05;0.35;;;0.30;;
74293;SDS011;64044;59.904;10.738;2024-01-15T01:39:31;0.52;;;0.40;;
74293;SDS011;64044;59.904;10.738;2024-01-15T01:41:56;0.10;;;0.10;;
74293;SDS011;64044;59.904;10.738;2024-01-15T01:44:22;0.00;;;0.00;;
74293;SDS011;64044;59.904;10.738;2024-01-15T01:46:48;0.05;;;0.05;;
74293;SDS011;64044;59.904;10.738;2024-01-15T01:49:14;0.22;;;0.10;;
74293;SDS011;64044;59.904;10.738;2024-01-15T01:51:41;0.10;;;0.05;;
74293;SDS011;64044;59.904;10.738;2024-01-15T01:54:06;0.10;;;0.10;;
74293;SDS011;64044;59.904;10.738;2024-01-15T01:56:34;0.40;;;0.15;;
74293;SDS011;64044;59.904;10.738;2024-01-15T01:59:01;0.75;;;0.10;;
74293;SDS011;64044;59.904;10.738;2024-01-15T02:01:28;0.00;;;0.00;;
74293;SDS011;64044;59.904;10.738;2024-01-15T02:03:54;0.08;;;0.08;;
74293;SDS011;64044;59.904;10.738;2024-01-15T02:06:22;0.00;;;0.00;;
74293;SDS011;64044;59.904;10.738;2024-01-15T02:08:48;0.10;;;0.10;;
74293;SDS011;64044;59.904;10.738;2024-01-15T02:11:14;0.00;;;0.00;;
74293;SDS011;64044;59.904;10.738;2024-01-15T02:13:40;0.10;;;0.10;;
74293;SDS011;64044;59.904;10.738;2024-01-15T02:16:06;0.43;;;0.20;;
74293;SDS011;64044;59.904;10.738;2024-01-15T02:18:44;0.10;;;0.05;;
74293;SDS011;64044;59.904;10.738;2024-01-15T02:21:11;2.28;;;0.17;;
74293;SDS011;64044;59.904;10.738;2024-01-15T02:23:37;0.00;;;0.00;;
74293;SDS011;64044;59.904;10.738;2024-01-15T02:26:07;0.00;;;0.00;;
74293;SDS011;64044;59.904;10.738;2024-01-15T02:28:33;0.30;;;0.30;;
74293;SDS011;64044;59.904;10.738;2024-01-15T02:30:59;0.30;;;0.00;;
74293;SDS011;64044;59.904;10.738;2024-01-15T02:33:25;0.00;;;0.00;;
74293;SDS011;64044;59.904;10.738;2024-01-15T02:35:51;0.00;;;0.00;;
74293;SDS011;64044;59.904;10.738;2024-01-15T02:38:16;0.00;;;0.00;;
74293;SDS011;64044;59.904;10.738;2024-01-15T02:40:43;0.10;;;0.05;;
74293;SDS011;64044;59.904;10.738;2024-01-15T02:43:10;0.00;;;0.00;;
74293;SDS011;64044;59.904;10.738;2024-01-15T02:45:36;0.17;;;0.10;;
74293;SDS011;64044;59.904;10.738;2024-01-15T02:48:02;1.15;;;0.00;;
74293;SDS011;64044;59.904;10.738;2024-01-15T02:50:28;0.30;;;0.10;;
74293;SDS011;64044;59.904;10.738;2024-01-15T02:52:53;0.00;;;0.00;;
74293;SDS011;64044;59.904;10.738;2024-01-15T02:55:19;0.00;;;0.00;;
74293;SDS011;64044;59.904;10.738;2024-01-15T02:57:45;0.17;;;0.10;;
74293;SDS011;64044;59.904;10.738;2024-01-15T03:00:11;0.70;;;0.08;;
74293;SDS011;64044;59.904;10.738;2024-01-15T03:02:37;0.10;;;0.10;;
74293;SDS011;64044;59.904;10.738;2024-01-15T03:05:10;0.43;;;0.10;;
74293;SDS011;64044;59.904;10.738;2024-01-15T03:10:28;0.10;;;0.08;;
74293;SDS011;64044;59.904;10.738;2024-01-15T03:12:54;0.17;;;0.10;;
74293;SDS011;64044;59.904;10.738;2024-01-15T03:15:20;0.00;;;0.00;;
74293;SDS011;64044;59.904;10.738;2024-01-15T03:17:45;0.45;;;0.10;;
74293;SDS011;64044;59.904;10.738;2024-01-15T03:20:11;0.00;;;0.00;;
74293;SDS011;64044;59.904;10.738;2024-01-15T03:22:37;0.13;;;0.00;;
74293;SDS011;64044;59.904;10.738;2024-01-15T03:25:03;0.10;;;0.10;;
74293;SDS011;64044;59.904;10.738;2024-01-15T03:27:29;0.60;;;0.08;;
74293;SDS011;64044;59.904;10.738;2024-01-15T03:29:55;0.05;;;0.05;;
74293;SDS011;64044;59.904;10.738;2024-01-15T03:32:21;0.00;;;0.00;;
74293;SDS011;64044;59.904;10.738;2024-01-15T03:34:46;0.40;;;0.08;;
74293;SDS011;64044;59.904;10.738;2024-01-15T03:37:13;0.10;;;0.10;;
74293;SDS011;64044;59.904;10.738;2024-01-15T03:39:39;0.05;;;0.03;;
74293;SDS011;64044;59.904;10.738;2024-01-15T03:42:06;0.03;;;0.00;;
74293;SDS011;64044;59.904;10.738;2024-01-15T03:44:32;0.10;;;0.10;;
74293;SDS011;64044;59.904;10.738;2024-01-15T03:46:58;0.05;;;0.03;;
74293;SDS011;64044;59.904;10.738;2024-01-15T03:49:24;0.05;;;0.05;;
74293;SDS011;64044;59.904;10.738;2024-01-15T03:51:49;0.00;;;0.00;;
74293;SDS011;64044;59.904;10.738;2024-01-15T03:54:15;0.65;;;0.10;;
74293;SDS011;64044;59.904;10.738;2024-01-15T03:56:41;0.10;;;0.00;;
74293;SDS011;64044;59.904;10.738;2024-01-15T03:59:07;0.05;;;0.05;;
74293;SDS011;64044;59.904;10.738;2024-01-15T04:01:32;0.60;;;0.05;;
74293;SDS011;64044;59.904;10.738;2024-01-15T04:03:58;1.92;;;0.10;;
74293;SDS011;64044;59.904;10.738;2024-01-15T04:06:24;0.00;;;0.00;;
74293;SDS011;64044;59.904;10.738;2024-01-15T04:08:49;0.08;;;0.05;;
74293;SDS011;64044;59.904;10.738;2024-01-15T04:11:15;0.35;;;0.10;;
74293;SDS011;64044;59.904;10.738;2024-01-15T04:13:41;0.47;;;0.10;;
74293;SDS011;64044;59.904;10.738;2024-01-15T04:16:07;0.20;;;0.10;;
74293;SDS011;64044;59.904;10.738;2024-01-15T04:18:32;1.23;;;0.03;;
74293;SDS011;64044;59.904;10.738;2024-01-15T04:20:58;0.10;;;0.10;;
74293;SDS011;64044;59.904;10.738;2024-01-15T04:23:24;0.20;;;0.10;;
74293;SDS011;64044;59.904;10.738;2024-01-15T04:25:50;0.77;;;0.20;;
74293;SDS011;64044;59.904;10.738;2024-01-15T04:28:15;0.30;;;0.10;;
74293;SDS011;64044;59.904;10.738;2024-01-15T04:30:41;0.00;;;0.00;;
74293;SDS011;64044;59.904;10.738;2024-01-15T04:33:07;0.43;;;0.17;;
74293;SDS011;64044;59.904;10.738;2024-01-15T04:35:33;0.10;;;0.10;;
74293;SDS011;64044;59.904;10.738;2024-01-15T04:37:59;0.00;;;0.00;;
74293;SDS011;64044;59.904;10.738;2024-01-15T04:40:25;0.00;;;0.00;;
74293;SDS011;64044;59.904;10.738;2024-01-15T04:42:53;0.35;;;0.20;;
74293;SDS011;64044;59.904;10.738;2024-01-15T04:45:19;1.00;;;0.10;;
74293;SDS011;64044;59.904;10.738;2024-01-15T04:47:48;0.35;;;0.10;;
74293;SDS011;64044;59.904;10.738;2024-01-15T04:50:14;1.65;;;0.20;;
74293;SDS011;64044;59.904;10.738;2024-01-15T04:52:40;0.22;;;0.03;;
74293;SDS011;64044;59.904;10.738;2024-01-15T04:55:06;0.05;;;0.05;;
74293;SDS011;64044;59.904;10.738;2024-01-15T04:57:31;0.32;;;0.10;;
74293;SDS011;64044;59.904;10.738;2024-01-15T04:59:57;0.15;;;0.10;;
74293;SDS011;64044;59.904;10.738;2024-01-15T05:02:23;0.00;;;0.00;;
74293;SDS011;64044;59.904;10.738;2024-01-15T05:04:49;0.93;;;0.08;;
74293;SDS011;64044;59.904;10.738;2024-01-15T05:07:14;0.10;;;0.10;;
74293;SDS011;64044;59.904;10.738;2024-01-15T05:09:40;0.00;;;0.00;;
74293;SDS011;64044;59.904;10.738;2024-01-15T05:12:06;1.88;;;0.20;;
74293;SDS011;64044;59.904;10.738;2024-01-15T05:14:32;0.28;;;0.17;;
74293;SDS011;64044;59.904;10.738;2024-01-15T05:16:58;0.30;;;0.10;;
74293;SDS011;64044;59.904;10.738;2024-01-15T05:19:23;0.10;;;0.10;;
74293;SDS011;64044;59.904;10.738;2024-01-15T05:21:49;0.00;;;0.00;;
74293;SDS011;64044;59.904;10.738;2024-01-15T05:24:15;1.35;;;0.20;;
74293;SDS011;64044;59.904;10.738;2024-01-15T05:26:41;0.10;;;0.08;;
74293;SDS011;64044;59.904;10.738;2024-01-15T05:29:06;0.35;;;0.10;;
74293;SDS011;64044;59.904;10.738;2024-01-15T05:31:32;0.57;;;0.57;;
74293;SDS011;64044;59.904;10.738;2024-01-15T05:33:58;0.15;;;0.15;;
74293;SDS011;64044;59.904;10.738;2024-01-15T05:36:24;0.25;;;0.20;;
74293;SDS011;64044;59.904;10.738;2024-01-15T05:38:49;0.10;;;0.10;;
74293;SDS011;64044;59.904;10.738;2024-01-15T05:41:15;0.40;;;0.20;;
74293;SDS011;64044;59.904;10.738;2024-01-15T05:43:41;0.30;;;0.20;;
74293;SDS011;64044;59.904;10.738;2024-01-15T05:46:07;0.35;;;0.20;;
74293;SDS011;64044;59.904;10.738;2024-01-15T05:48:32;0.40;;;0.28;;
74293;SDS011;64044;59.904;10.738;2024-01-15T05:50:58;0.90;;;0.20;;
74293;SDS011;64044;59.904;10.738;2024-01-15T05:53:24;0.43;;;0.17;;
74293;SDS011;64044;59.904;10.738;2024-01-15T05:55:50;0.10;;;0.10;;
74293;SDS011;64044;59.904;10.738;2024-01-15T05:58:16;0.20;;;0.20;;
74293;SDS011;64044;59.904;10.738;2024-01-15T06:00:42;0.57;;;0.30;;
74293;SDS011;64044;59.904;10.738;2024-01-15T06:03:07;0.28;;;0.15;;
74293;SDS011;64044;59.904;10.738;2024-01-15T06:05:33;0.10;;;0.10;;
74293;SDS011;64044;59.904;10.738;2024-01-15T06:07:59;1.02;;;0.20;;
74293;SDS011;64044;59.904;10.738;2024-01-15T06:10:24;0.00;;;0.00;;
74293;SDS011;64044;59.904;10.738;2024-01-15T06:12:50;0.30;;;0.20;;
74293;SDS011;64044;59.904;10.738;2024-01-15T06:15:16;0.47;;;0.32;;
74293;SDS011;64044;59.904;10.738;2024-01-15T06:17:42;1.73;;;0.75;;
74293;SDS011;64044;59.904;10.738;2024-01-15T06:20:08;0.98;;;0.30;;
74293;SDS011;64044;59.904;10.738;2024-01-15T06:22:34;0.60;;;0.15;;
74293;SDS011;64044;59.904;10.738;2024-01-15T06:25:01;1.15;;;0.40;;
74293;SDS011;64044;59.904;10.738;2024-01-15T06:27:28;0.52;;;0.28;;
74293;SDS011;64044;59.904;10.738;2024-01-15T06:29:53;1.83;;;0.65;;
74293;SDS011;64044;59.904;10.738;2024-01-15T06:32:21;1.00;;;0.50;;
74293;SDS011;64044;59.904;10.738;2024-01-15T06:34:46;1.23;;;0.40;;
74293;SDS011;64044;59.904;10.738;2024-01-15T06:37:12;0.20;;;0.20;;
74293;SDS011;64044;59.904;10.738;2024-01-15T06:39:38;0.40;;;0.20;;
74293;SDS011;64044;59.904;10.738;2024-01-15T06:42:04;0.10;;;0.10;;
74293;SDS011;64044;59.904;10.738;2024-01-15T06:44:30;0.57;;;0.20;;
74293;SDS011;64044;59.904;10.738;2024-01-15T06:46:56;0.28;;;0.28;;
74293;SDS011;64044;59.904;10.738;2024-01-15T06:49:25;0.95;;;0.30;;
74293;SDS011;64044;59.904;10.738;2024-01-15T06:51:51;1.65;;;0.20;;
74293;SDS011;64044;59.904;10.738;2024-01-15T06:54:17;0.70;;;0.38;;
74293;SDS011;64044;59.904;10.738;2024-01-15T06:56:43;0.30;;;0.30;;
74293;SDS011;64044;59.904;10.738;2024-01-15T06:59:08;1.65;;;0.60;;
74293;SDS011;64044;59.904;10.738;2024-01-15T07:01:34;0.47;;;0.30;;
74293;SDS011;64044;59.904;10.738;2024-01-15T07:04:00;0.20;;;0.20;;
74293;SDS011;64044;59.904;10.738;2024-01-15T07:06:26;0.25;;;0.13;;
74293;SDS011;64044;59.904;10.738;2024-01-15T07:08:51;0.60;;;0.30;;
74293;SDS011;64044;59.904;10.738;2024-01-15T07:11:17;0.22;;;0.20;;
74293;SDS011;64044;59.904;10.738;2024-01-15T07:13:43;1.40;;;0.20;;
74293;SDS011;64044;59.904;10.738;2024-01-15T07:16:09;0.30;;;0.30;;
74293;SDS011;64044;59.904;10.738;2024-01-15T07:18:34;0.20;;;0.20;;
74293;SDS011;64044;59.904;10.738;2024-01-15T07:21:00;0.55;;;0.55;;
74293;SDS011;64044;59.904;10.738;2024-01-15T07:23:27;2.67;;;0.82;;
74293;SDS011;64044;59.904;10.738;2024-01-15T07:25:53;1.90;;;1.10;;
74293;SDS011;64044;59.904;10.738;2024-01-15T07:28:19;1.00;;;0.90;;
74293;SDS011;64044;59.904;10.738;2024-01-15T07:30:45;5.22;;;2.28;;
74293;SDS011;64044;59.904;10.738;2024-01-15T07:33:10;6.03;;;2.75;;
74293;SDS011;64044;59.904;10.738;2024-01-15T07:35:37;6.35;;;2.75;;
74293;SDS011;64044;59.904;10.738;2024-01-15T07:38:03;3.42;;;2.00;;
74293;SDS011;64044;59.904;10.738;2024-01-15T07:40:29;1.73;;;1.17;;
74293;SDS011;64044;59.904;10.738;2024-01-15T07:42:54;3.30;;;1.00;;
74293;SDS011;64044;59.904;10.738;2024-01-15T07:45:20;4.10;;;0.93;;
74293;SDS011;64044;59.904;10.738;2024-01-15T07:47:46;2.22;;;0.77;;
74293;SDS011;64044;59.904;10.738;2024-01-15T07:50:12;1.88;;;0.65;;
74293;SDS011;64044;59.904;10.738;2024-01-15T07:52:39;1.40;;;0.75;;
74293;SDS011;64044;59.904;10.738;2024-01-15T07:55:07;1.02;;;0.70;;
74293;SDS011;64044;59.904;10.738;2024-01-15T07:57:33;3.65;;;0.80;;
74293;SDS011;64044;59.904;10.738;2024-01-15T07:59:59;1.27;;;0.77;;
74293;SDS011;64044;59.904;10.738;2024-01-15T08:02:24;0.98;;;0.85;;
74293;SDS011;64044;59.904;10.738;2024-01-15T08:04:50;2.28;;;1.40;;
74293;SDS011;64044;59.904;10.738;2024-01-15T08:07:16;2.95;;;1.05;;
74293;SDS011;64044;59.904;10.738;2024-01-15T08:09:42;1.83;;;0.90;;
74293;SDS011;64044;59.904;10.738;2024-01-15T08:12:08;4.03;;;1.38;;
74293;SDS011;64044;59.904;10.738;2024-01-15T08:14:35;1.90;;;1.15;;
74293;SDS011;64044;59.904;10.738;2024-01-15T08:17:01;2.80;;;0.88;;
74293;SDS011;64044;59.904;10.738;2024-01-15T08:19:26;5.80;;;1.77;;
74293;SDS011;64044;59.904;10.738;2024-01-15T08:21:52;2.70;;;1.17;;
74293;SDS011;64044;59.904;10.738;2024-01-15T08:24:18;3.20;;;1.33;;
74293;SDS011;64044;59.904;10.738;2024-01-15T08:26:44;4.35;;;1.48;;
74293;SDS011;64044;59.904;10.738;2024-01-15T08:29:10;3.28;;;1.75;;
74293;SDS011;64044;59.904;10.738;2024-01-15T08:31:36;5.10;;;1.67;;
74293;SDS011;64044;59.904;10.738;2024-01-15T08:34:02;4.00;;;1.65;;
74293;SDS011;64044;59.904;10.738;2024-01-15T08:36:28;6.15;;;1.92;;
74293;SDS011;64044;59.904;10.738;2024-01-15T08:38:55;5.93;;;2.13;;
74293;SDS011;64044;59.904;10.738;2024-01-15T08:41:21;5.80;;;2.00;;
74293;SDS011;64044;59.904;10.738;2024-01-15T08:43:48;5.15;;;2.10;;
74293;SDS011;64044;59.904;10.738;2024-01-15T08:46:14;5.28;;;2.38;;
74293;SDS011;64044;59.904;10.738;2024-01-15T08:48:40;5.20;;;2.15;;
74293;SDS011;64044;59.904;10.738;2024-01-15T08:51:05;4.38;;;1.80;;
74293;SDS011;64044;59.904;10.738;2024-01-15T08:53:33;6.05;;;2.20;;
74293;SDS011;64044;59.904;10.738;2024-01-15T08:55:58;7.72;;;2.53;;
74293;SDS011;64044;59.904;10.738;2024-01-15T08:58:24;8.25;;;2.28;;
74293;SDS011;64044;59.904;10.738;2024-01-15T09:00:50;6.03;;;2.33;;
74293;SDS011;64044;59.904;10.738;2024-01-15T09:03:16;6.85;;;2.75;;
74293;SDS011;64044;59.904;10.738;2024-01-15T09:05:42;7.43;;;2.78;;
74293;SDS011;64044;59.904;10.738;2024-01-15T09:08:08;3.63;;;1.80;;
74293;SDS011;64044;59.904;10.738;2024-01-15T09:10:34;5.63;;;2.22;;
74293;SDS011;64044;59.904;10.738;2024-01-15T09:13:00;3.92;;;1.60;;
74293;SDS011;64044;59.904;10.738;2024-01-15T09:15:25;6.93;;;1.92;;
74293;SDS011;64044;59.904;10.738;2024-01-15T09:17:51;3.58;;;1.90;;
74293;SDS011;64044;59.904;10.738;2024-01-15T09:20:17;3.83;;;1.80;;
74293;SDS011;64044;59.904;10.738;2024-01-15T09:22:43;3.67;;;1.65;;
74293;SDS011;64044;59.904;10.738;2024-01-15T09:25:09;4.35;;;1.60;;
74293;SDS011;64044;59.904;10.738;2024-01-15T09:27:35;3.13;;;1.70;;
74293;SDS011;64044;59.904;10.738;2024-01-15T09:30:02;3.47;;;1.67;;
74293;SDS011;64044;59.904;10.738;2024-01-15T09:32:29;4.95;;;1.80;;
74293;SDS011;64044;59.904;10.738;2024-01-15T09:34:55;5.32;;;2.20;;
74293;SDS011;64044;59.904;10.738;2024-01-15T09:37:21;5.03;;;2.05;;
74293;SDS011;64044;59.904;10.738;2024-01-15T09:39:48;5.15;;;2.33;;
74293;SDS011;64044;59.904;10.738;2024-01-15T09:42:15;2.70;;;1.88;;
74293;SDS011;64044;59.904;10.738;2024-01-15T09:44:41;4.93;;;2.30;;
74293;SDS011;64044;59.904;10.738;2024-01-15T09:47:07;2.97;;;1.63;;
74293;SDS011;64044;59.904;10.738;2024-01-15T09:49:33;3.85;;;2.05;;
74293;SDS011;64044;59.904;10.738;2024-01-15T09:51:59;4.03;;;2.13;;
74293;SDS011;64044;59.904;10.738;2024-01-15T09:54:27;3.70;;;1.95;;
74293;SDS011;64044;59.904;10.738;2024-01-15T09:56:53;2.75;;;1.70;;
74293;SDS011;64044;59.904;10.738;2024-01-15T09:59:20;4.13;;;1.60;;
74293;SDS011;64044;59.904;10.738;2024-01-15T10:01:47;5.65;;;2.45;;
74293;SDS011;64044;59.904;10.738;2024-01-15T10:04:15;3.25;;;2.10;;
74293;SDS011;64044;59.904;10.738;2024-01-15T10:06:44;4.45;;;2.35;;
74293;SDS011;64044;59.904;10.738;2024-01-15T10:09:12;5.30;;;2.10;;
74293;SDS011;64044;59.904;10.738;2024-01-15T10:14:08;6.18;;;1.42;;
74293;SDS011;64044;59.904;10.738;2024-01-15T10:16:38;5.90;;;1.70;;
74293;SDS011;64044;59.904;10.738;2024-01-15T10:19:04;2.85;;;1.58;;
74293;SDS011;64044;59.904;10.738;2024-01-15T10:21:31;4.15;;;1.95;;
74293;SDS011;64044;59.904;10.738;2024-01-15T10:24:00;3.47;;;1.40;;
74293;SDS011;64044;59.904;10.738;2024-01-15T10:26:26;6.53;;;1.73;;
74293;SDS011;64044;59.904;10.738;2024-01-15T10:28:52;7.65;;;1.75;;
74293;SDS011;64044;59.904;10.738;2024-01-15T10:31:17;3.05;;;1.42;;
74293;SDS011;64044;59.904;10.738;2024-01-15T10:33:44;4.75;;;2.13;;
74293;SDS011;64044;59.904;10.738;2024-01-15T10:36:10;3.65;;;1.90;;
74293;SDS011;64044;59.904;10.738;2024-01-15T10:38:36;4.18;;;1.85;;
74293;SDS011;64044;59.904;10.738;2024-01-15T10:41:02;1.50;;;1.35;;
74293;SDS011;64044;59.904;10.738;2024-01-15T10:43:29;5.03;;;1.65;;
74293;SDS011;64044;59.904;10.738;2024-01-15T10:45:55;3.50;;;1.42;;
74293;SDS011;64044;59.904;10.738;2024-01-15T10:48:21;2.78;;;1.60;;
74293;SDS011;64044;59.904;10.738;2024-01-15T10:50:47;2.63;;;1.50;;
74293;SDS011;64044;59.904;10.738;2024-01-15T10:53:16;3.78;;;1.40;;
74293;SDS011;64044;59.904;10.738;2024-01-15T10:55:42;2.85;;;1.45;;
74293;SDS011;64044;59.904;10.738;2024-01-15T10:58:08;4.03;;;1.80;;
74293;SDS011;64044;59.904;10.738;2024-01-15T11:00:35;2.60;;;1.17;;
74293;SDS011;64044;59.904;10.738;2024-01-15T11:03:05;4.68;;;1.30;;
74293;SDS011;64044;59.904;10.738;2024-01-15T11:05:37;3.72;;;1.83;;
74293;SDS011;64044;59.904;10.738;2024-01-15T11:08:07;3.63;;;1.55;;
74293;SDS011;64044;59.904;10.738;2024-01-15T11:15:58;4.13;;;1.55;;
74293;SDS011;64044;59.904;10.738;2024-01-15T11:18:29;2.40;;;1.55;;
74293;SDS011;64044;59.904;10.738;2024-01-15T11:23:44;4.05;;;1.90;;
74293;SDS011;64044;59.904;10.738;2024-01-15T11:29:09;2.83;;;1.45;;
74293;SDS011;64044;59.904;10.738;2024-01-15T11:32:00;3.50;;;1.52;;
74293;SDS011;64044;59.904;10.738;2024-01-15T11:37:19;6.95;;;4.43;;
74293;SDS011;64044;59.904;10.738;2024-01-15T11:39:46;7.63;;;1.98;;
74293;SDS011;64044;59.904;10.738;2024-01-15T11:42:12;3.55;;;1.65;;
74293;SDS011;64044;59.904;10.738;2024-01-15T11:44:39;4.90;;;1.60;;
74293;SDS011;64044;59.904;10.738;2024-01-15T11:52:34;2.22;;;1.48;;
74293;SDS011;64044;59.904;10.738;2024-01-15T11:55:05;4.05;;;1.88;;
74293;SDS011;64044;59.904;10.738;2024-01-15T11:57:40;3.60;;;1.50;;
74293;SDS011;64044;59.904;10.738;2024-01-15T12:00:15;3.60;;;1.67;;
74293;SDS011;64044;59.904;10.738;2024-01-15T12:02:42;4.75;;;1.30;;
74293;SDS011;64044;59.904;10.738;2024-01-15T12:05:09;4.32;;;2.10;;
74293;SDS011;64044;59.904;10.738;2024-01-15T12:07:38;3.25;;;1.80;;
74293;SDS011;64044;59.904;10.738;2024-01-15T12:10:14;2.85;;;1.73;;
74293;SDS011;64044;59.904;10.738;2024-01-15T12:15:23;2.83;;;1.60;;
74293;SDS011;64044;59.904;10.738;2024-01-15T12:17:50;3.13;;;1.52;;
74293;SDS011;64044;59.904;10.738;2024-01-15T12:20:16;3.97;;;2.00;;
74293;SDS011;64044;59.904;10.738;2024-01-15T12:22:43;3.33;;;1.70;;
74293;SDS011;64044;59.904;10.738;2024-01-15T12:25:09;4.43;;;1.38;;
74293;SDS011;64044;59.904;10.738;2024-01-15T12:27:35;3.50;;;1.50;;
74293;SDS011;64044;59.904;10.738;2024-01-15T12:30:01;2.95;;;1.55;;
74293;SDS011;64044;59.904;10.738;2024-01-15T12:32:28;2.85;;;1.80;;
74293;SDS011;64044;59.904;10.738;2024-01-15T12:34:54;4.53;;;1.70;;
74293;SDS011;64044;59.904;10.738;2024-01-15T12:37:20;3.85;;;1.90;;
74293;SDS011;64044;59.904;10.738;2024-01-15T12:39:47;2.60;;;1.40;;
74293;SDS011;64044;59.904;10.738;2024-01-15T12:42:16;2.80;;;1.80;;
74293;SDS011;64044;59.904;10.738;2024-01-15T12:44:42;3.17;;;1.75;;
74293;SDS011;64044;59.904;10.738;2024-01-15T12:47:08;2.05;;;1.40;;
74293;SDS011;64044;59.904;10.738;2024-01-15T12:49:36;3.35;;;2.00;;
74293;SDS011;64044;59.904;10.738;2024-01-15T12:52:02;2.50;;;1.70;;
74293;SDS011;64044;59.904;10.738;2024-01-15T12:54:28;2.60;;;1.40;;
74293;SDS011;64044;59.904;10.738;2024-01-15T12:56:54;2.50;;;1.65;;
74293;SDS011;64044;59.904;10.738;2024-01-15T12:59:20;3.22;;;1.65;;
74293;SDS011;64044;59.904;10.738;2024-01-15T13:01:45;2.38;;;1.70;;
74293;SDS011;64044;59.904;10.738;2024-01-15T13:04:20;3.40;;;1.88;;
74293;SDS011;64044;59.904;10.738;2024-01-15T13:06:46;3.78;;;1.35;;
74293;SDS011;64044;59.904;10.738;2024-01-15T13:09:13;2.70;;;1.70;;
74293;SDS011;64044;59.904;10.738;2024-01-15T13:11:39;3.15;;;1.63;;
74293;SDS011;64044;59.904;10.738;2024-01-15T13:14:05;4.03;;;2.03;;
74293;SDS011;64044;59.904;10.738;2024-01-15T13:16:31;3.35;;;2.08;;
74293;SDS011;64044;59.904;10.738;2024-01-15T13:18:57;3.83;;;1.58;;
74293;SDS011;64044;59.904;10.738;2024-01-15T13:21:23;3.38;;;1.52;;
74293;SDS011;64044;59.904;10.738;2024-01-15T13:23:50;3.20;;;1.67;;
74293;SDS011;64044;59.904;10.738;2024-01-15T13:26:16;3.28;;;1.80;;
74293;SDS011;64044;59.904;10.738;2024-01-15T13:28:43;2.78;;;1.60;;
74293;SDS011;64044;59.904;10.738;2024-01-15T13:31:09;2.67;;;1.90;;
74293;SDS011;64044;59.904;10.738;2024-01-15T13:33:35;3.17;;;1.83;;
74293;SDS011;64044;59.904;10.738;2024-01-15T13:36:01;2.42;;;1.90;;
74293;SDS011;64044;59.904;10.738;2024-01-15T13:38:27;2.63;;;1.50;;
74293;SDS011;64044;59.904;10.738;2024-01-15T13:40:56;2.95;;;1.70;;
74293;SDS011;64044;59.904;10.738;2024-01-15T13:43:22;3.63;;;1.50;;
74293;SDS011;64044;59.904;10.738;2024-01-15T13:45:48;2.45;;;1.77;;
74293;SDS011;64044;59.904;10.738;2024-01-15T13:51:05;3.28;;;1.92;;
74293;SDS011;64044;59.904;10.738;2024-01-15T13:53:31;3.28;;;1.60;;
74293;SDS011;64044;59.904;10.738;2024-01-15T13:55:57;2.58;;;1.50;;
74293;SDS011;64044;59.904;10.738;2024-01-15T13:58:24;6.15;;;1.60;;
74293;SDS011;64044;59.904;10.738;2024-01-15T14:00:50;3.20;;;1.60;;
74293;SDS011;64044;59.904;10.738;2024-01-15T14:03:17;3.13;;;1.60;;
74293;SDS011;64044;59.904;10.738;2024-01-15T14:05:44;2.92;;;1.80;;
74293;SDS011;64044;59.904;10.738;2024-01-15T14:08:10;4.13;;;1.60;;
74293;SDS011;64044;59.904;10.738;2024-01-15T14:10:36;3.60;;;1.73;;
74293;SDS011;64044;59.904;10.738;2024-01-15T14:13:02;16.17;;;2.15;;
74293;SDS011;64044;59.904;10.738;2024-01-15T14:15:28;2.60;;;1.48;;
74293;SDS011;64044;59.904;10.738;2024-01-15T14:17:54;3.78;;;1.40;;
74293;SDS011;64044;59.904;10.738;2024-01-15T14:20:20;3.03;;;1.80;;
74293;SDS011;64044;59.904;10.738;2024-01-15T14:22:46;3.85;;;2.08;;
74293;SDS011;64044;59.904;10.738;2024-01-15T14:25:13;3.15;;;1.55;;
74293;SDS011;64044;59.904;10.738;2024-01-15T14:27:38;2.90;;;1.77;;
74293;SDS011;64044;59.904;10.738;2024-01-15T14:30:05;2.10;;;1.48;;
74293;SDS011;64044;59.904;10.738;2024-01-15T14:32:31;2.72;;;1.63;;
74293;SDS011;64044;59.904;10.738;2024-01-15T14:34:57;2.47;;;1.23;;
74293;SDS011;64044;59.904;10.738;2024-01-15T14:37:22;2.17;;;1.33;;
74293;SDS011;64044;59.904;10.738;2024-01-15T14:39:48;3.10;;;1.50;;
74293;SDS011;64044;59.904;10.738;2024-01-15T14:42:14;2.55;;;1.77;;
74293;SDS011;64044;59.904;10.738;2024-01-15T14:44:40;3.15;;;1.52;;
74293;SDS011;64044;59.904;10.738;2024-01-15T14:47:06;3.65;;;1.42;;
74293;SDS011;64044;59.904;10.738;2024-01-15T14:49:33;2.47;;;1.48;;
74293;SDS011;64044;59.904;10.738;2024-01-15T14:51:59;3.38;;;1.73;;
74293;SDS011;64044;59.904;10.738;2024-01-15T14:54:24;2.33;;;1.20;;
74293;SDS011;64044;59.904;10.738;2024-01-15T14:56:51;2.75;;;1.58;;
74293;SDS011;64044;59.904;10.738;2024-01-15T14:59:17;2.72;;;1.83;;